Weather reports worldwide

Advertisment
Puerto de san Isidro, Spain (8057): temperature & dewpoint: 18.06.2019 16:00:00 - 24.06.2019 16:00:00 (CEST)Puerto de san Isidro, Spain (8057): wind speed & gusts: 18.06.2019 16:00:00 - 24.06.2019 16:00:00 (CEST)Puerto de san Isidro, Spain (8057): wind direction: 18.06.2019 16:00:00 - 24.06.2019 16:00:00 (CEST)Puerto de san Isidro, Spain (8057): visibility: 18.06.2019 16:00:00 - 24.06.2019 16:00:00 (CEST)Puerto de san Isidro, Spain (8057): sunshine duration: 18.06.2019 16:00:00 - 24.06.2019 16:00:00 (CEST)Puerto de san Isidro, Spain (8057): precipitation: 18.06.2019 16:00:00 - 24.06.2019 16:00:00 (CEST)
Date & Time tt [°C] td [°C] ff [km/h] ff [kn] fx [km/h] fx [kn] dd vv [km] sd [min] rr [mm]
24.06.2019 16:00:00 - - - - - - - - - -
24.06.2019 15:00:00 11,1 9,3 15 8 25 13 ENE 17 0 1,8
24.06.2019 14:00:00 10,8 7,8 4 2 13 7 WNW 11 0 -
24.06.2019 13:00:00 11,5 7,4 8 4 16 9 W 17 0 0,8
24.06.2019 12:00:00 13,8 7,1 6 3 21 11 NNE 20 1 0,2
24.06.2019 11:00:00 14,2 6,5 8 5 26 14 W 20 7 0,2
24.06.2019 10:00:00 14,5 10,5 7 4 15 8 E 20 5 0,0
24.06.2019 09:00:00 13,3 10,5 10 5 19 11 ENE 20 0 0,0
24.06.2019 08:00:00 12,8 9,8 8 5 33 18 E 20 0 -
24.06.2019 07:00:00 13,6 8,0 13 7 34 19 S 20 0 0,0
24.06.2019 06:00:00 12,7 8,4 8 5 31 17 E 20 0 0,2
24.06.2019 05:00:00 11,2 8,4 3 1 11 6 ENE 20 0 0,0
24.06.2019 04:00:00 11,4 7,8 8 4 16 8 E 20 0 0,0
24.06.2019 03:00:00 13,1 7,1 6 3 25 14 SSE 20 0 0,0
24.06.2019 02:00:00 12,1 8,4 5 3 19 10 E 20 0 -
24.06.2019 01:00:00 12,7 7,8 7 4 26 14 WSW 20 0 0,6
24.06.2019 00:00:00 13,8 9,3 8 4 38 20 W 14 0 0,0
23.06.2019 23:00:00 12,3 8,9 6 3 22 12 E 20 0 0,8
23.06.2019 22:00:00 12,7 9,2 3 2 19 10 ESE 20 0 0,0
23.06.2019 21:00:00 13,5 9,2 6 4 22 12 S 20 6 1,6
23.06.2019 20:00:00 14,5 9,7 16 9 36 19 E 20 37 -
23.06.2019 19:00:00 14,3 8,5 17 9 37 20 ESE 20 28 0,0
23.06.2019 18:00:00 12,7 9,6 12 6 42 23 E 20 1 0,6
23.06.2019 17:00:00 13,9 9,2 11 6 34 18 SE 20 0 1,0
23.06.2019 16:00:00 17,4 6,5 8 5 49 27 ESE 20 14 0,0
23.06.2019 15:00:00 16,4 5,0 16 8 44 24 S 20 12 0,0
23.06.2019 14:00:00 16,6 5,5 8 4 37 20 E 20 4 -
23.06.2019 13:00:00 16,3 8,0 10 5 40 22 W 20 25 0,0
23.06.2019 12:00:00 17,3 7,6 8 4 39 21 W 20 60 0,0
23.06.2019 11:00:00 17,0 5,9 14 7 33 18 SSE 20 60 0,0
23.06.2019 10:00:00 15,0 5,5 23 13 41 22 E 20 32 0,0
23.06.2019 09:00:00 13,5 5,5 20 11 30 16 E 20 21 0,0
23.06.2019 08:00:00 13,9 3,6 11 6 27 14 SE 20 5 -
23.06.2019 07:00:00 14,1 0,4 9 5 36 19 SSE 20 0 0,0
23.06.2019 06:00:00 14,8 0,2 10 5 28 15 SSE 20 0 0,0
23.06.2019 05:00:00 15,5 -0,3 9 5 29 16 S 20 0 0,0
23.06.2019 04:00:00 15,1 3,8 11 6 27 14 SSE 20 0 0,0
23.06.2019 03:00:00 16,3 1,3 10 5 30 16 S 20 0 0,0
23.06.2019 02:00:00 16,8 0,4 13 7 41 22 S 20 0 -
23.06.2019 01:00:00 14,0 2,3 5 3 15 8 SW 20 0 0,0
23.06.2019 00:00:00 13,3 5,0 4 2 17 9 W 20 0 0,0
22.06.2019 23:00:00 15,8 5,9 6 4 29 16 SE 20 0 0,0
22.06.2019 22:00:00 16,3 5,6 6 3 26 14 SSE 20 0 0,0
22.06.2019 21:00:00 16,9 6,7 4 2 15 8 NW 20 0 0,0
22.06.2019 20:00:00 18,1 5,0 6 4 27 14 ESE 20 0 -
22.06.2019 19:00:00 18,3 3,8 9 5 33 18 S 20 10 0,0
22.06.2019 18:00:00 19,1 3,2 11 6 35 19 S 20 59 0,0
22.06.2019 17:00:00 19,0 5,1 13 7 35 19 SSW 20 60 0,0
22.06.2019 16:00:00 17,0 4,6 13 7 34 18 S 20 15 0,0
22.06.2019 15:00:00 16,3 5,3 10 5 31 17 SE 20 19 0,0
22.06.2019 14:00:00 15,3 4,6 12 6 33 18 SSE 20 13 -
22.06.2019 13:00:00 15,4 4,5 22 12 36 19 E 20 28 0,0
22.06.2019 12:00:00 14,8 6,1 10 5 37 20 E 20 41 0,0
22.06.2019 11:00:00 15,3 6,8 21 11 34 19 E 20 60 0,0
22.06.2019 10:00:00 11,9 5,8 14 7 40 22 ESE 20 54 0,0
22.06.2019 09:00:00 10,5 6,4 16 9 32 17 E 20 5 0,0
22.06.2019 08:00:00 9,3 6,5 21 11 36 20 E 20 2 -
22.06.2019 07:00:00 7,8 6,2 15 8 29 16 E 20 0 0,0
22.06.2019 06:00:00 7,7 6,7 16 9 31 17 ENE 20 0 0,0
22.06.2019 05:00:00 7,3 6,4 15 8 24 13 E 20 0 0,0
22.06.2019 04:00:00 7,8 6,8 14 7 31 17 E 20 0 0,0
22.06.2019 03:00:00 7,8 6,8 15 8 29 16 E 20 0 0,0
22.06.2019 02:00:00 7,6 6,7 13 7 23 13 ENE 20 0 -
22.06.2019 01:00:00 7,3 6,4 3 2 9 5 ESE 0,4 0 0,0
22.06.2019 00:00:00 7,6 6,7 5 3 10 5 ESE 0,1 0 0,0
21.06.2019 23:00:00 8,3 7,4 5 3 16 9 E 0,3 0 0,0
21.06.2019 22:00:00 8,6 7,7 14 8 18 10 W 0,4 0 0,0
21.06.2019 21:00:00 9,2 8,3 11 6 19 11 WNW 0,4 0 0,0
21.06.2019 20:00:00 9,1 8,1 15 8 24 13 W 0,9 0 -
21.06.2019 19:00:00 9,3 8,3 21 12 27 15 W 0,5 4 0,0
21.06.2019 18:00:00 10,6 8,9 18 10 30 16 W 20 15 0,0
21.06.2019 17:00:00 12,7 9,6 22 12 29 16 W 20 38 0,0
21.06.2019 16:00:00 13,5 9,9 15 8 26 14 W 20 47 0,0
21.06.2019 15:00:00 11,9 8,1 18 10 25 14 W 20 37 0,0
21.06.2019 14:00:00 11,5 8,5 17 9 24 13 WNW 20 42 -
21.06.2019 13:00:00 10,9 8,1 14 7 19 11 WNW 11 24 0,0
21.06.2019 12:00:00 9,6 7,0 10 5 15 8 NW 20 27 0,0
21.06.2019 11:00:00 8,6 7,0 12 6 17 9 WNW 13 10 0,0
21.06.2019 10:00:00 7,7 6,8 10 6 19 10 W 5 0 0,0
21.06.2019 09:00:00 7,3 6,4 13 7 18 10 WNW 4,2 0 0,2
21.06.2019 08:00:00 7,0 6,1 11 6 19 10 W 1,9 0 -
21.06.2019 07:00:00 6,7 5,8 17 9 22 12 W 0,7 0 0,0
21.06.2019 06:00:00 6,8 5,9 13 7 18 10 W 0,4 0 0,0
21.06.2019 05:00:00 6,9 5,9 12 7 16 8 W 0,5 0 0,0
21.06.2019 04:00:00 7,0 6,1 9 5 14 8 WNW 0,4 0 0,0
21.06.2019 03:00:00 7,2 6,2 10 5 14 8 WNW 0,3 0 0,0
21.06.2019 02:00:00 7,4 6,4 8 4 12 6 W 0,6 0 -
21.06.2019 01:00:00 7,5 6,4 8 4 14 8 W - 0 0,0
21.06.2019 00:00:00 7,5 6,4 6 3 12 7 WNW 1,5 0 0,2
20.06.2019 23:00:00 7,7 6,5 7 4 17 9 W 3,9 0 0,2
20.06.2019 22:00:00 7,8 6,7 4 2 19 10 W 20 0 0,8
20.06.2019 21:00:00 8,2 7,0 10 6 21 11 WNW 11 0 0,0
20.06.2019 20:00:00 8,7 7,3 10 6 25 14 WNW 15 0 -
20.06.2019 19:00:00 9,0 8,0 11 6 25 13 W 4,4 0 1,2
20.06.2019 18:00:00 9,5 7,6 13 7 26 14 NW 11 0 0,0
20.06.2019 17:00:00 10,1 8,4 13 7 21 11 NW 3,3 0 0,2
20.06.2019 16:00:00 9,4 8,4 16 8 23 12 W 2,2 0 0,0
20.06.2019 15:00:00 9,8 8,4 14 8 23 12 W 0,2 2 0,0
20.06.2019 14:00:00 10,6 8,9 14 8 23 12 WNW - 11 -
20.06.2019 13:00:00 10,9 8,8 14 7 23 12 W 20 24 0,0
20.06.2019 12:00:00 10,1 8,5 18 10 27 14 WNW 1,8 18 0,0
20.06.2019 11:00:00 10,4 8,1 13 7 18 10 W 20 20 0,2
20.06.2019 10:00:00 9,3 8,3 9 5 13 7 WNW 20 22 0,0
20.06.2019 09:00:00 8,3 7,4 6 4 10 6 WNW 20 2 0,0
20.06.2019 08:00:00 7,8 6,9 8 4 10 5 WNW - 0 -
20.06.2019 07:00:00 7,6 6,7 8 4 10 6 W 13 0 0,0
20.06.2019 06:00:00 7,8 6,9 8 4 11 6 W - 0 0,0
20.06.2019 05:00:00 8,0 7,1 5 3 10 6 NW 0,7 0 0,0
20.06.2019 04:00:00 8,1 7,1 8 5 - - W 0,3 - -
20.06.2019 03:00:00 8,3 7,4 7 4 9 5 W 1,2 0 0,0
20.06.2019 02:00:00 8,4 7,4 6 3 14 8 W 0,1 0 -
20.06.2019 01:00:00 8,9 8,0 8 4 13 7 NW 0,7 0 0,0
20.06.2019 00:00:00 9,0 8,1 6 3 14 8 WNW - 0 0,0
19.06.2019 23:00:00 9,3 8,4 11 6 17 9 W 0,1 0 0,0
19.06.2019 22:00:00 9,6 8,7 12 7 18 10 WNW 0,1 0 0,0
19.06.2019 21:00:00 10,0 9,0 12 7 19 11 W 0,1 0 0,0
19.06.2019 20:00:00 10,5 9,4 10 6 26 14 WNW 0,9 0 -
19.06.2019 19:00:00 10,6 9,3 16 9 26 14 W 0,1 0 0,4
19.06.2019 18:00:00 12,1 9,7 13 7 32 17 WNW 20 3 0,0
19.06.2019 17:00:00 13,2 9,7 21 11 31 17 WNW 20 18 0,0
19.06.2019 16:00:00 - - - - - - - - - -
19.06.2019 15:00:00 - - - - - - - - - -
19.06.2019 14:00:00 14,5 6,5 10 5 41 22 WNW 20 25 -
19.06.2019 13:00:00 13,4 5,8 10 5 27 14 NW 20 0 0,0
19.06.2019 12:00:00 12,5 5,6 7 4 33 18 NW 20 1 0,0
19.06.2019 11:00:00 - - - - - - - - - -
19.06.2019 10:00:00 - - - - - - - - - -
19.06.2019 09:00:00 - - - - - - - - - -
19.06.2019 08:00:00 - - - - - - - - - -
19.06.2019 07:00:00 - - - - - - - - - -
19.06.2019 06:00:00 - - - - - - - - - -
19.06.2019 05:00:00 - - - - - - - - - -
19.06.2019 04:00:00 - - - - - - - - - -
19.06.2019 03:00:00 - - - - - - - - - -
19.06.2019 02:00:00 - - - - - - - - - -
19.06.2019 01:00:00 - - - - - - - - - -
19.06.2019 00:00:00 - - - - - - - - - -
18.06.2019 23:00:00 - - - - - - - - - -
18.06.2019 22:00:00 - - - - - - - - - -
18.06.2019 21:00:00 - - - - - - - - - -
18.06.2019 20:00:00 - - - - - - - - - -
18.06.2019 19:00:00 14,1 6,2 16 9 45 24 SSE 20 0 0,0
18.06.2019 18:00:00 14,7 6,5 16 9 36 19 S 20 3 0,0
18.06.2019 17:00:00 14,7 6,7 16 8 43 23 S 20 10 0,0
18.06.2019 16:00:00 15,3 5,0 15 8 47 25 S 20 0 0,0

tt = temperature
td = dewpoint
ff = wind speed
fx = gusts
dd = wind direction
vv = visibility
sd = sunshine duration
rr = precipitation

Next stations